sensor_id;sensor_type;location;lat;lon;timestamp;pressure;altitude;pressure_sealevel;temperature;humidity
27729;BME280;15126;42.186;24.340;2023-03-04T00:02:20;99413.09;;;6.21;93.71
27729;BME280;15126;42.186;24.340;2023-03-04T00:04:47;99414.69;;;6.22;94.17
27729;BME280;15126;42.186;24.340;2023-03-04T00:07:14;99406.75;;;6.28;93.80
27729;BME280;15126;42.186;24.340;2023-03-04T00:09:43;99379.53;;;6.05;93.52
27729;BME280;15126;42.186;24.340;2023-03-04T00:12:11;99406.38;;;6.29;92.89
27729;BME280;15126;42.186;24.340;2023-03-04T00:14:38;99388.19;;;6.25;93.15
27729;BME280;15126;42.186;24.340;2023-03-04T00:17:05;99392.91;;;6.28;93.00
27729;BME280;15126;42.186;24.340;2023-03-04T00:19:33;99404.78;;;6.32;92.53
27729;BME280;15126;42.186;24.340;2023-03-04T00:22:00;99406.38;;;6.29;91.85
27729;BME280;15126;42.186;24.340;2023-03-04T00:24:27;99406.75;;;6.28;91.72
27729;BME280;15126;42.186;24.340;2023-03-04T00:26:54;99408.34;;;6.29;91.58
27729;BME280;15126;42.186;24.340;2023-03-04T00:29:21;99410.72;;;6.27;91.60
27729;BME280;15126;42.186;24.340;2023-03-04T00:31:48;99408.75;;;6.24;91.66
27729;BME280;15126;42.186;24.340;2023-03-04T00:34:15;99417.44;;;6.26;91.77
27729;BME280;15126;42.186;24.340;2023-03-04T00:36:43;99405.59;;;6.22;91.48
27729;BME280;15126;42.186;24.340;2023-03-04T00:39:10;99417.44;;;6.26;92.00
27729;BME280;15126;42.186;24.340;2023-03-04T00:41:37;99421.41;;;6.25;91.69
27729;BME280;15126;42.186;24.340;2023-03-04T00:44:04;99406.81;;;5.99;93.06
27729;BME280;15126;42.186;24.340;2023-03-04T00:46:31;99404.84;;;5.96;93.80
27729;BME280;15126;42.186;24.340;2023-03-04T00:48:58;99402.09;;;6.00;93.01
27729;BME280;15126;42.186;24.340;2023-03-04T00:51:25;99390.59;;;6.02;93.07
27729;BME280;15126;42.186;24.340;2023-03-04T00:53:53;99385.88;;;5.88;94.06
27729;BME280;15126;42.186;24.340;2023-03-04T00:56:20;99402.88;;;5.93;94.00
27729;BME280;15126;42.186;24.340;2023-03-04T00:58:47;99397.34;;;5.97;93.03
27729;BME280;15126;42.186;24.340;2023-03-04T01:01:14;99389.03;;;5.93;93.17
27729;BME280;15126;42.186;24.340;2023-03-04T01:03:40;99394.19;;;5.91;92.81
27729;BME280;15126;42.186;24.340;2023-03-04T01:06:08;99389.06;;;5.86;93.27
27729;BME280;15126;42.186;24.340;2023-03-04T01:08:36;99390.22;;;5.85;93.61
27729;BME280;15126;42.186;24.340;2023-03-04T01:11:04;99391.41;;;5.81;93.39
27729;BME280;15126;42.186;24.340;2023-03-04T01:13:31;99394.16;;;5.74;93.90
27729;BME280;15126;42.186;24.340;2023-03-04T01:15:58;99393.38;;;5.66;94.75
27729;BME280;15126;42.186;24.340;2023-03-04T01:18:24;99402.06;;;5.75;94.68
27729;BME280;15126;42.186;24.340;2023-03-04T01:20:51;99394.97;;;5.81;94.28
27729;BME280;15126;42.186;24.340;2023-03-04T01:23:18;99392.97;;;5.78;93.49
27729;BME280;15126;42.186;24.340;2023-03-04T01:25:45;99383.50;;;5.76;94.74
27729;BME280;15126;42.186;24.340;2023-03-04T01:28:13;99386.66;;;5.81;94.46
27729;BME280;15126;42.186;24.340;2023-03-04T01:30:40;99382.69;;;5.79;93.83
27729;BME280;15126;42.186;24.340;2023-03-04T01:33:07;99380.31;;;5.81;94.01
27729;BME280;15126;42.186;24.340;2023-03-04T01:35:34;99374.00;;;5.80;94.06
27729;BME280;15126;42.186;24.340;2023-03-04T01:38:00;99358.97;;;5.74;95.28
27729;BME280;15126;42.186;24.340;2023-03-04T01:40:27;99368.84;;;5.68;95.94
27729;BME280;15126;42.186;24.340;2023-03-04T01:42:54;99361.38;;;5.86;95.53
27729;BME280;15126;42.186;24.340;2023-03-04T01:45:22;99363.34;;;5.86;95.27
27729;BME280;15126;42.186;24.340;2023-03-04T01:47:50;99361.75;;;5.85;96.07
27729;BME280;15126;42.186;24.340;2023-03-04T01:50:21;99345.16;;;5.78;96.21
27729;BME280;15126;42.186;24.340;2023-03-04T01:52:49;99361.34;;;5.93;96.01
27729;BME280;15126;42.186;24.340;2023-03-04T01:55:19;99370.03;;;5.95;96.10
27729;BME280;15126;42.186;24.340;2023-03-04T01:57:47;99362.56;;;5.85;95.79
27729;BME280;15126;42.186;24.340;2023-03-04T02:00:21;99358.59;;;5.72;95.84
27729;BME280;15126;42.186;24.340;2023-03-04T02:02:52;99371.22;;;5.80;95.92
27729;BME280;15126;42.186;24.340;2023-03-04T02:05:20;99374.41;;;5.72;95.04
27729;BME280;15126;42.186;24.340;2023-03-04T02:07:48;99370.84;;;5.57;94.85
27729;BME280;15126;42.186;24.340;2023-03-04T02:10:15;99363.34;;;5.47;95.25
27729;BME280;15126;42.186;24.340;2023-03-04T02:12:43;99368.88;;;5.54;95.33
27729;BME280;15126;42.186;24.340;2023-03-04T02:15:10;99374.81;;;5.53;95.50
27729;BME280;15126;42.186;24.340;2023-03-04T02:17:38;99376.38;;;5.47;95.25
27729;BME280;15126;42.186;24.340;2023-03-04T02:20:13;99371.66;;;5.40;95.33
27729;BME280;15126;42.186;24.340;2023-03-04T02:22:47;99372.84;;;5.43;95.17
27729;BME280;15126;42.186;24.340;2023-03-04T02:25:21;99378.38;;;5.43;95.89
27729;BME280;15126;42.186;24.340;2023-03-04T02:27:51;99366.13;;;5.40;95.29
27729;BME280;15126;42.186;24.340;2023-03-04T02:30:22;99362.56;;;5.43;95.88
27729;BME280;15126;42.186;24.340;2023-03-04T02:32:51;99358.22;;;5.42;95.82
27729;BME280;15126;42.186;24.340;2023-03-04T02:35:18;99342.81;;;5.34;95.25
27729;BME280;15126;42.186;24.340;2023-03-04T02:37:46;99359.00;;;5.39;94.94
27729;BME280;15126;42.186;24.340;2023-03-04T02:40:15;99355.81;;;5.30;94.57
27729;BME280;15126;42.186;24.340;2023-03-04T02:42:44;99349.53;;;5.26;95.51
27729;BME280;15126;42.186;24.340;2023-03-04T02:45:35;99349.53;;;5.26;95.50
27729;BME280;15126;42.186;24.340;2023-03-04T02:48:03;99349.50;;;5.22;95.82
27729;BME280;15126;42.186;24.340;2023-03-04T02:50:34;99349.13;;;5.24;95.60
27729;BME280;15126;42.186;24.340;2023-03-04T02:53:02;99341.63;;;5.21;96.22
27729;BME280;15126;42.186;24.340;2023-03-04T02:55:28;99360.56;;;5.26;95.95
27729;BME280;15126;42.186;24.340;2023-03-04T02:57:56;99361.38;;;5.23;96.38
27729;BME280;15126;42.186;24.340;2023-03-04T03:00:23;99365.69;;;5.27;96.26
27729;BME280;15126;42.186;24.340;2023-03-04T03:02:51;99355.44;;;5.21;95.83
27729;BME280;15126;42.186;24.340;2023-03-04T03:05:19;99325.78;;;5.00;96.93
27729;BME280;15126;42.186;24.340;2023-03-04T03:07:46;99355.47;;;5.24;96.37
27729;BME280;15126;42.186;24.340;2023-03-04T03:10:12;99360.16;;;5.27;96.82
27729;BME280;15126;42.186;24.340;2023-03-04T03:12:39;99363.72;;;5.07;97.13
27729;BME280;15126;42.186;24.340;2023-03-04T03:15:07;99344.78;;;5.05;97.42
27729;BME280;15126;42.186;24.340;2023-03-04T03:17:34;99347.94;;;5.11;97.02
27729;BME280;15126;42.186;24.340;2023-03-04T03:20:03;99357.41;;;5.17;96.67
27729;BME280;15126;42.186;24.340;2023-03-04T03:22:30;99356.63;;;5.16;95.95
27729;BME280;15126;42.186;24.340;2023-03-04T03:24:57;99364.91;;;5.09;96.93
27729;BME280;15126;42.186;24.340;2023-03-04T03:27:24;99360.16;;;5.10;96.78
27729;BME280;15126;42.186;24.340;2023-03-04T03:29:51;99369.25;;;5.14;96.71
27729;BME280;15126;42.186;24.340;2023-03-04T03:32:17;99359.78;;;5.15;96.28
27729;BME280;15126;42.186;24.340;2023-03-04T03:34:44;99350.31;;;5.16;95.58
27729;BME280;15126;42.186;24.340;2023-03-04T03:37:13;99353.06;;;5.12;95.99
27729;BME280;15126;42.186;24.340;2023-03-04T03:39:39;99357.00;;;5.08;96.75
27729;BME280;15126;42.186;24.340;2023-03-04T03:42:06;99355.81;;;5.05;96.53
27729;BME280;15126;42.186;24.340;2023-03-04T03:44:33;99346.72;;;4.98;96.97
27729;BME280;15126;42.186;24.340;2023-03-04T03:47:01;99346.31;;;4.96;96.52
27729;BME280;15126;42.186;24.340;2023-03-04T03:49:27;99338.44;;;4.94;96.58
27729;BME280;15126;42.186;24.340;2023-03-04T03:51:54;99360.56;;;5.05;96.89
27729;BME280;15126;42.186;24.340;2023-03-04T03:54:23;99358.94;;;5.00;97.06
27729;BME280;15126;42.186;24.340;2023-03-04T03:56:49;99360.53;;;4.98;97.15
27729;BME280;15126;42.186;24.340;2023-03-04T03:59:16;99362.91;;;4.96;97.99
27729;BME280;15126;42.186;24.340;2023-03-04T04:01:43;99356.59;;;4.99;97.94
27729;BME280;15126;42.186;24.340;2023-03-04T04:04:10;99369.63;;;5.02;97.89
27729;BME280;15126;42.186;24.340;2023-03-04T04:06:37;99373.19;;;5.02;97.55
27729;BME280;15126;42.186;24.340;2023-03-04T04:09:04;99358.56;;;4.91;97.41
27729;BME280;15126;42.186;24.340;2023-03-04T04:11:32;99372.78;;;4.97;97.20
27729;BME280;15126;42.186;24.340;2023-03-04T04:13:59;99367.66;;;4.92;96.80
27729;BME280;15126;42.186;24.340;2023-03-04T04:16:25;99373.16;;;4.92;96.86
27729;BME280;15126;42.186;24.340;2023-03-04T04:18:52;99371.56;;;4.91;96.90
27729;BME280;15126;42.186;24.340;2023-03-04T04:21:19;99377.50;;;4.86;97.25
27729;BME280;15126;42.186;24.340;2023-03-04T04:23:46;99377.91;;;4.91;96.51
27729;BME280;15126;42.186;24.340;2023-03-04T04:26:13;99380.25;;;4.93;96.92
27729;BME280;15126;42.186;24.340;2023-03-04T04:28:41;99375.94;;;4.92;96.54
27729;BME280;15126;42.186;24.340;2023-03-04T04:31:08;99384.63;;;4.94;95.53
27729;BME280;15126;42.186;24.340;2023-03-04T04:33:35;99386.59;;;4.97;95.64
27729;BME280;15126;42.186;24.340;2023-03-04T04:36:02;99373.53;;;4.90;95.31
27729;BME280;15126;42.186;24.340;2023-03-04T04:38:29;99381.81;;;4.87;95.42
27729;BME280;15126;42.186;24.340;2023-03-04T04:40:56;99376.66;;;4.74;95.78
27729;BME280;15126;42.186;24.340;2023-03-04T04:43:24;99381.00;;;4.79;96.31
27729;BME280;15126;42.186;24.340;2023-03-04T04:45:53;99373.91;;;4.74;96.25
27729;BME280;15126;42.186;24.340;2023-03-04T04:48:19;99374.69;;;4.75;96.50
27729;BME280;15126;42.186;24.340;2023-03-04T04:50:52;99378.63;;;4.81;96.16
27729;BME280;15126;42.186;24.340;2023-03-04T04:53:19;99372.34;;;4.77;96.34
27729;BME280;15126;42.186;24.340;2023-03-04T04:55:45;99369.94;;;4.72;96.48
27729;BME280;15126;42.186;24.340;2023-03-04T04:58:12;99378.63;;;4.74;96.67
27729;BME280;15126;42.186;24.340;2023-03-04T05:00:39;99385.38;;;4.80;96.94
27729;BME280;15126;42.186;24.340;2023-03-04T05:03:07;99380.63;;;4.80;96.58
27729;BME280;15126;42.186;24.340;2023-03-04T05:05:34;99379.47;;;4.85;96.06
27729;BME280;15126;42.186;24.340;2023-03-04T05:08:01;99383.00;;;4.86;96.03
27729;BME280;15126;42.186;24.340;2023-03-04T05:10:28;99390.91;;;4.87;96.28
27729;BME280;15126;42.186;24.340;2023-03-04T05:12:54;99391.31;;;4.93;95.90
27729;BME280;15126;42.186;24.340;2023-03-04T05:15:21;99386.94;;;4.77;95.77
27729;BME280;15126;42.186;24.340;2023-03-04T05:17:48;99379.44;;;4.81;95.39
27729;BME280;15126;42.186;24.340;2023-03-04T05:20:16;99389.69;;;4.81;95.88
27729;BME280;15126;42.186;24.340;2023-03-04T05:22:43;99393.59;;;4.66;95.33
27729;BME280;15126;42.186;24.340;2023-03-04T05:25:10;99395.88;;;4.46;95.04
27729;BME280;15126;42.186;24.340;2023-03-04T05:27:37;99390.38;;;4.50;94.95
27729;BME280;15126;42.186;24.340;2023-03-04T05:30:04;99403.00;;;4.54;95.22
27729;BME280;15126;42.186;24.340;2023-03-04T05:32:31;99395.94;;;4.60;95.30
27729;BME280;15126;42.186;24.340;2023-03-04T05:34:58;99390.03;;;4.58;94.94
27729;BME280;15126;42.186;24.340;2023-03-04T05:37:26;99391.22;;;4.61;94.55
27729;BME280;15126;42.186;24.340;2023-03-04T05:39:53;99394.78;;;4.61;94.73
27729;BME280;15126;42.186;24.340;2023-03-04T05:42:20;99386.50;;;4.61;94.86
27729;BME280;15126;42.186;24.340;2023-03-04T05:44:47;99385.31;;;4.66;95.40
27729;BME280;15126;42.186;24.340;2023-03-04T05:47:13;99394.00;;;4.71;95.42
27729;BME280;15126;42.186;24.340;2023-03-04T05:49:40;99405.50;;;4.80;95.28
27729;BME280;15126;42.186;24.340;2023-03-04T05:52:09;99400.38;;;4.86;95.39
27729;BME280;15126;42.186;24.340;2023-03-04T05:54:37;99407.81;;;4.71;96.12
27729;BME280;15126;42.186;24.340;2023-03-04T05:57:04;99413.78;;;4.80;96.65
27729;BME280;15126;42.186;24.340;2023-03-04T05:59:31;99416.53;;;4.84;96.10
27729;BME280;15126;42.186;24.340;2023-03-04T06:01:58;99424.88;;;4.91;95.90
27729;BME280;15126;42.186;24.340;2023-03-04T06:04:24;99419.72;;;4.90;94.14
27729;BME280;15126;42.186;24.340;2023-03-04T06:06:51;99424.47;;;4.86;94.37
27729;BME280;15126;42.186;24.340;2023-03-04T06:09:18;99420.53;;;4.94;93.59
27729;BME280;15126;42.186;24.340;2023-03-04T06:11:47;99407.94;;;5.00;94.18
27729;BME280;15126;42.186;24.340;2023-03-04T06:14:14;99416.63;;;5.09;94.68
27729;BME280;15126;42.186;24.340;2023-03-04T06:16:40;99426.09;;;5.15;94.86
27729;BME280;15126;42.186;24.340;2023-03-04T06:19:07;99428.09;;;5.21;94.62
27729;BME280;15126;42.186;24.340;2023-03-04T06:21:34;99434.84;;;5.31;94.51
27729;BME280;15126;42.186;24.340;2023-03-04T06:24:01;99434.03;;;5.34;94.29
27729;BME280;15126;42.186;24.340;2023-03-04T06:26:28;99434.03;;;5.41;93.98
27729;BME280;15126;42.186;24.340;2023-03-04T06:28:56;99440.38;;;5.45;94.03
27729;BME280;15126;42.186;24.340;2023-03-04T06:31:23;99426.94;;;5.40;93.93
27729;BME280;15126;42.186;24.340;2023-03-04T06:33:50;99447.53;;;5.57;93.55
27729;BME280;15126;42.186;24.340;2023-03-04T06:36:17;99453.84;;;5.64;93.91
27729;BME280;15126;42.186;24.340;2023-03-04T06:38:44;99452.66;;;5.65;93.11
27729;BME280;15126;42.186;24.340;2023-03-04T06:41:12;99460.56;;;5.70;93.28
27729;BME280;15126;42.186;24.340;2023-03-04T06:43:39;99460.97;;;5.76;92.95
27729;BME280;15126;42.186;24.340;2023-03-04T06:46:07;99457.00;;;5.70;92.48
27729;BME280;15126;42.186;24.340;2023-03-04T06:48:34;99457.00;;;5.66;92.78
27729;BME280;15126;42.186;24.340;2023-03-04T06:51:05;99461.34;;;5.64;92.70
27729;BME280;15126;42.186;24.340;2023-03-04T06:53:32;99451.50;;;5.73;92.25
27729;BME280;15126;42.186;24.340;2023-03-04T06:55:58;99458.97;;;5.80;92.77
27729;BME280;15126;42.186;24.340;2023-03-04T06:58:25;99453.84;;;5.82;92.24
27729;BME280;15126;42.186;24.340;2023-03-04T07:00:52;99468.91;;;5.91;92.64
27729;BME280;15126;42.186;24.340;2023-03-04T07:03:20;99460.16;;;5.82;92.93
27729;BME280;15126;42.186;24.340;2023-03-04T07:05:48;99461.00;;;5.86;93.31
27729;BME280;15126;42.186;24.340;2023-03-04T07:08:15;99464.94;;;5.96;92.97
27729;BME280;15126;42.186;24.340;2023-03-04T07:10:41;99468.91;;;5.95;92.56
27729;BME280;15126;42.186;24.340;2023-03-04T07:13:08;99452.69;;;5.93;92.52
27729;BME280;15126;42.186;24.340;2023-03-04T07:15:36;99467.31;;;5.97;93.09
27729;BME280;15126;42.186;24.340;2023-03-04T07:18:03;99462.16;;;5.96;92.23
27729;BME280;15126;42.186;24.340;2023-03-04T07:20:31;99455.06;;;5.98;92.20
27729;BME280;15126;42.186;24.340;2023-03-04T07:22:58;99456.63;;;6.07;92.47
27729;BME280;15126;42.186;24.340;2023-03-04T07:25:24;99455.44;;;6.04;92.38
27729;BME280;15126;42.186;24.340;2023-03-04T07:27:51;99458.59;;;6.13;92.59
27729;BME280;15126;42.186;24.340;2023-03-04T07:30:18;99446.75;;;6.13;93.44
27729;BME280;15126;42.186;24.340;2023-03-04T07:32:45;99444.38;;;6.04;94.36
27729;BME280;15126;42.186;24.340;2023-03-04T07:35:12;99438.84;;;6.08;94.00
27729;BME280;15126;42.186;24.340;2023-03-04T07:37:40;99448.72;;;6.19;94.23
27729;BME280;15126;42.186;24.340;2023-03-04T07:40:08;99438.41;;;6.20;94.33
27729;BME280;15126;42.186;24.340;2023-03-04T07:42:36;99449.06;;;6.28;94.15
27729;BME280;15126;42.186;24.340;2023-03-04T07:45:04;99444.38;;;6.22;94.68
27729;BME280;15126;42.186;24.340;2023-03-04T07:47:32;99442.38;;;6.26;93.98
27729;BME280;15126;42.186;24.340;2023-03-04T07:49:59;99450.66;;;6.26;95.00
27729;BME280;15126;42.186;24.340;2023-03-04T07:52:26;99443.53;;;6.32;95.53
27729;BME280;15126;42.186;24.340;2023-03-04T07:54:54;99445.06;;;6.47;95.95
27729;BME280;15126;42.186;24.340;2023-03-04T07:57:21;99459.31;;;6.52;96.21
27729;BME280;15126;42.186;24.340;2023-03-04T07:59:47;99448.59;;;6.58;94.15
27729;BME280;15126;42.186;24.340;2023-03-04T08:02:14;99454.94;;;6.58;93.60
27729;BME280;15126;42.186;24.340;2023-03-04T08:04:41;99454.53;;;6.64;94.66
27729;BME280;15126;42.186;24.340;2023-03-04T08:07:08;99450.16;;;6.73;94.43
27729;BME280;15126;42.186;24.340;2023-03-04T08:09:35;99454.50;;;6.78;93.50
27729;BME280;15126;42.186;24.340;2023-03-04T08:12:03;99439.41;;;6.82;93.63
27729;BME280;15126;42.186;24.340;2023-03-04T08:14:31;99442.91;;;7.00;93.47
27729;BME280;15126;42.186;24.340;2023-03-04T08:16:58;99443.25;;;7.09;93.24
27729;BME280;15126;42.186;24.340;2023-03-04T08:19:25;99446.38;;;7.18;92.83
27729;BME280;15126;42.186;24.340;2023-03-04T08:21:52;99442.41;;;7.19;91.45
27729;BME280;15126;42.186;24.340;2023-03-04T08:24:19;99448.66;;;7.38;91.54
27729;BME280;15126;42.186;24.340;2023-03-04T08:26:47;99455.25;;;7.58;90.85
27729;BME280;15126;42.186;24.340;2023-03-04T08:29:18;99453.22;;;7.65;91.74
27729;BME280;15126;42.186;24.340;2023-03-04T08:31:46;99452.41;;;7.68;91.37
27729;BME280;15126;42.186;24.340;2023-03-04T08:34:13;99458.63;;;7.83;90.53
27729;BME280;15126;42.186;24.340;2023-03-04T08:36:40;99457.81;;;7.86;88.61
27729;BME280;15126;42.186;24.340;2023-03-04T08:39:10;99438.34;;;7.93;88.39
27729;BME280;15126;42.186;24.340;2023-03-04T08:41:37;99450.13;;;8.04;88.63
27729;BME280;15126;42.186;24.340;2023-03-04T08:44:04;99453.28;;;8.06;87.67
27729;BME280;15126;42.186;24.340;2023-03-04T08:46:34;99443.25;;;8.16;87.81
27729;BME280;15126;42.186;24.340;2023-03-04T08:49:00;99439.28;;;8.20;87.83
27729;BME280;15126;42.186;24.340;2023-03-04T08:51:27;99444.88;;;8.13;87.67
27729;BME280;15126;42.186;24.340;2023-03-04T08:53:54;99444.00;;;8.23;87.63
27729;BME280;15126;42.186;24.340;2023-03-04T08:56:21;99438.75;;;8.36;86.70
27729;BME280;15126;42.186;24.340;2023-03-04T08:58:48;99447.41;;;8.45;86.82
27729;BME280;15126;42.186;24.340;2023-03-04T09:01:15;99438.50;;;8.57;88.03
27729;BME280;15126;42.186;24.340;2023-03-04T09:03:43;99430.16;;;8.57;87.02
27729;BME280;15126;42.186;24.340;2023-03-04T09:06:13;99438.19;;;8.48;86.10
27729;BME280;15126;42.186;24.340;2023-03-04T09:08:40;99431.34;;;8.60;86.73
27729;BME280;15126;42.186;24.340;2023-03-04T09:11:07;99428.91;;;8.62;86.65
27729;BME280;15126;42.186;24.340;2023-03-04T09:13:34;99426.53;;;8.64;87.55
27729;BME280;15126;42.186;24.340;2023-03-04T09:16:02;99431.19;;;8.70;87.50
27729;BME280;15126;42.186;24.340;2023-03-04T09:18:29;99433.59;;;8.72;86.11
27729;BME280;15126;42.186;24.340;2023-03-04T09:20:57;99430.81;;;8.72;86.35
27729;BME280;15126;42.186;24.340;2023-03-04T09:23:24;99426.13;;;8.62;86.50
27729;BME280;15126;42.186;24.340;2023-03-04T09:25:51;99425.97;;;8.76;86.80
27729;BME280;15126;42.186;24.340;2023-03-04T09:28:18;99434.69;;;8.78;85.33
27729;BME280;15126;42.186;24.340;2023-03-04T09:30:45;99425.44;;;8.88;85.64
27729;BME280;15126;42.186;24.340;2023-03-04T09:33:13;99428.16;;;8.91;86.12
27729;BME280;15126;42.186;24.340;2023-03-04T09:35:40;99421.72;;;8.98;86.08
27729;BME280;15126;42.186;24.340;2023-03-04T09:38:09;99418.91;;;9.02;85.86
27729;BME280;15126;42.186;24.340;2023-03-04T09:40:40;99432.31;;;9.10;84.34
27729;BME280;15126;42.186;24.340;2023-03-04T09:43:13;99414.31;;;9.18;84.49
27729;BME280;15126;42.186;24.340;2023-03-04T09:45:47;99403.19;;;9.18;83.94
27729;BME280;15126;42.186;24.340;2023-03-04T09:48:19;99407.81;;;9.28;84.32
27729;BME280;15126;42.186;24.340;2023-03-04T09:50:56;99405.28;;;9.37;83.39
27729;BME280;15126;42.186;24.340;2023-03-04T09:53:33;99408.38;;;9.43;82.92
27729;BME280;15126;42.186;24.340;2023-03-04T09:56:08;99396.47;;;9.42;82.45
27729;BME280;15126;42.186;24.340;2023-03-04T09:58:44;99400.72;;;9.50;83.03
27729;BME280;15126;42.186;24.340;2023-03-04T10:01:19;99400.28;;;9.52;80.47
27729;BME280;15126;42.186;24.340;2023-03-04T10:03:51;99398.16;;;9.59;81.03
27729;BME280;15126;42.186;24.340;2023-03-04T10:06:21;99400.09;;;9.63;81.47
27729;BME280;15126;42.186;24.340;2023-03-04T10:08:55;99384.63;;;9.62;82.02
27729;BME280;15126;42.186;24.340;2023-03-04T10:11:28;99367.50;;;9.63;82.46
27729;BME280;15126;42.186;24.340;2023-03-04T10:14:09;99393.97;;;9.75;80.52
27729;BME280;15126;42.186;24.340;2023-03-04T10:16:44;99390.38;;;9.74;80.83
27729;BME280;15126;42.186;24.340;2023-03-04T10:19:26;99379.91;;;9.58;80.80
27729;BME280;15126;42.186;24.340;2023-03-04T10:21:55;99386.19;;;9.63;80.93
27729;BME280;15126;42.186;24.340;2023-03-04T10:24:27;99376.59;;;9.67;81.49
27729;BME280;15126;42.186;24.340;2023-03-04T10:26:57;99364.41;;;9.57;82.62
27729;BME280;15126;42.186;24.340;2023-03-04T10:29:28;99369.00;;;9.68;82.79
27729;BME280;15126;42.186;24.340;2023-03-04T10:31:56;99362.59;;;9.71;83.55
27729;BME280;15126;42.186;24.340;2023-03-04T10:34:23;99357.75;;;9.75;84.20
27729;BME280;15126;42.186;24.340;2023-03-04T10:36:57;99353.69;;;9.79;83.21
27729;BME280;15126;42.186;24.340;2023-03-04T10:39:28;99350.50;;;9.81;83.87
27729;BME280;15126;42.186;24.340;2023-03-04T10:41:58;99342.13;;;9.81;84.99
27729;BME280;15126;42.186;24.340;2023-03-04T10:44:26;99348.13;;;9.79;83.90
27729;BME280;15126;42.186;24.340;2023-03-04T10:46:54;99337.28;;;9.85;83.19
27729;BME280;15126;42.186;24.340;2023-03-04T10:49:23;99336.19;;;10.02;83.34
27729;BME280;15126;42.186;24.340;2023-03-04T10:51:52;99333.25;;;10.09;84.24
27729;BME280;15126;42.186;24.340;2023-03-04T10:54:26;99331.34;;;9.83;81.85
27729;BME280;15126;42.186;24.340;2023-03-04T10:56:57;99321.41;;;10.05;82.47
27729;BME280;15126;42.186;24.340;2023-03-04T10:59:43;99322.88;;;10.13;86.07
27729;BME280;15126;42.186;24.340;2023-03-04T11:02:23;99313.38;;;10.07;83.80
27729;BME280;15126;42.186;24.340;2023-03-04T11:05:01;99319.31;;;10.32;83.43
27729;BME280;15126;42.186;24.340;2023-03-04T11:07:30;99308.72;;;10.43;83.75
27729;BME280;15126;42.186;24.340;2023-03-04T11:10:09;99306.50;;;10.54;81.35
27729;BME280;15126;42.186;24.340;2023-03-04T11:12:37;99305.81;;;10.66;81.87
27729;BME280;15126;42.186;24.340;2023-03-04T11:15:17;99299.38;;;10.69;81.25
27729;BME280;15126;42.186;24.340;2023-03-04T11:17:47;99304.53;;;10.71;78.55
27729;BME280;15126;42.186;24.340;2023-03-04T11:20:24;99292.22;;;10.68;79.61
27729;BME280;15126;42.186;24.340;2023-03-04T11:22:52;99292.59;;;10.70;77.33
27729;BME280;15126;42.186;24.340;2023-03-04T11:25:26;99288.22;;;10.69;78.14
27729;BME280;15126;42.186;24.340;2023-03-04T11:27:54;99288.03;;;10.60;79.05
27729;BME280;15126;42.186;24.340;2023-03-04T11:30:37;99284.38;;;10.63;78.46
27729;BME280;15126;42.186;24.340;2023-03-04T11:33:15;99254.16;;;10.62;78.91
27729;BME280;15126;42.186;24.340;2023-03-04T11:35:50;99265.56;;;10.67;78.48
27729;BME280;15126;42.186;24.340;2023-03-04T11:38:20;99271.44;;;10.73;78.61
27729;BME280;15126;42.186;24.340;2023-03-04T11:40:53;99258.84;;;10.65;77.98
27729;BME280;15126;42.186;24.340;2023-03-04T11:43:24;99248.97;;;10.60;77.30
27729;BME280;15126;42.186;24.340;2023-03-04T11:46:24;99257.22;;;10.67;77.86
27729;BME280;15126;42.186;24.340;2023-03-04T11:49:07;99257.16;;;10.51;78.18
27729;BME280;15126;42.186;24.340;2023-03-04T11:51:46;99256.34;;;10.35;79.02
27729;BME280;15126;42.186;24.340;2023-03-04T11:54:19;99232.25;;;10.05;81.99
27729;BME280;15126;42.186;24.340;2023-03-04T11:56:52;99251.84;;;10.21;82.70
27729;BME280;15126;42.186;24.340;2023-03-04T11:59:32;99248.97;;;10.25;82.47
27729;BME280;15126;42.186;24.340;2023-03-04T12:02:16;99242.63;;;10.24;81.30
27729;BME280;15126;42.186;24.340;2023-03-04T12:07:51;99232.72;;;10.39;81.60
27729;BME280;15126;42.186;24.340;2023-03-04T12:10:24;99229.34;;;10.48;82.36
27729;BME280;15126;42.186;24.340;2023-03-04T12:13:15;99228.25;;;10.61;82.45
27729;BME280;15126;42.186;24.340;2023-03-04T12:15:53;99227.22;;;10.71;79.67
27729;BME280;15126;42.186;24.340;2023-03-04T12:18:33;99226.47;;;11.03;80.84
27729;BME280;15126;42.186;24.340;2023-03-04T12:21:21;99222.38;;;11.24;79.05
27729;BME280;15126;42.186;24.340;2023-03-04T12:24:17;99220.22;;;11.44;78.13
27729;BME280;15126;42.186;24.340;2023-03-04T12:26:50;99218.72;;;11.56;75.77
27729;BME280;15126;42.186;24.340;2023-03-04T12:29:26;99221.75;;;11.77;76.42
27729;BME280;15126;42.186;24.340;2023-03-04T12:32:02;99183.84;;;11.48;76.00
27729;BME280;15126;42.186;24.340;2023-03-04T12:34:52;99205.25;;;11.83;74.60
27729;BME280;15126;42.186;24.340;2023-03-04T12:37:31;99213.44;;;11.90;73.67
27729;BME280;15126;42.186;24.340;2023-03-04T12:40:16;99196.78;;;11.99;74.84
27729;BME280;15126;42.186;24.340;2023-03-04T12:42:58;99195.59;;;12.13;74.59
27729;BME280;15126;42.186;24.340;2023-03-04T12:45:33;99202.34;;;12.28;72.27
27729;BME280;15126;42.186;24.340;2023-03-04T12:48:10;99209.94;;;12.15;71.33
27729;BME280;15126;42.186;24.340;2023-03-04T12:50:41;99190.22;;;12.06;71.69
27729;BME280;15126;42.186;24.340;2023-03-04T12:53:20;99187.78;;;12.08;73.50
27729;BME280;15126;42.186;24.340;2023-03-04T12:55:54;99188.09;;;12.10;72.78
27729;BME280;15126;42.186;24.340;2023-03-04T12:58:24;99186.66;;;12.18;72.47
27729;BME280;15126;42.186;24.340;2023-03-04T13:00:58;99165.06;;;12.06;71.63
27729;BME280;15126;42.186;24.340;2023-03-04T13:03:37;99174.91;;;12.10;71.86
27729;BME280;15126;42.186;24.340;2023-03-04T13:06:17;99182.09;;;12.11;70.70
27729;BME280;15126;42.186;24.340;2023-03-04T13:08:52;99172.22;;;12.07;71.40
27729;BME280;15126;42.186;24.340;2023-03-04T13:11:45;99174.19;;;11.81;71.02
27729;BME280;15126;42.186;24.340;2023-03-04T13:14:27;99162.31;;;11.77;71.77